createdAt,value
2022-11-19T00:01:57.777Z,1.13
2022-11-19T00:04:25.678Z,0.73
2022-11-19T00:07:02.262Z,0.82
2022-11-19T00:09:30.022Z,0.57
2022-11-19T00:12:19.577Z,0.57
2022-11-19T00:14:47.251Z,0.70
2022-11-19T00:17:14.930Z,1.52
2022-11-19T00:19:42.408Z,0.90
2022-11-19T00:22:09.954Z,0.70
2022-11-19T00:24:37.652Z,0.80
2022-11-19T00:27:05.607Z,0.70
2022-11-19T00:29:33.415Z,0.75
2022-11-19T00:32:01.046Z,1.05
2022-11-19T00:34:28.664Z,0.80
2022-11-19T00:36:56.289Z,1.33
2022-11-19T00:39:23.812Z,0.80
2022-11-19T00:41:51.466Z,0.82
2022-11-19T00:44:19.145Z,1.50
2022-11-19T00:46:46.701Z,0.73
2022-11-19T00:49:14.393Z,1.42
2022-11-19T00:51:42.179Z,0.82
2022-11-19T00:54:09.900Z,0.80
2022-11-19T00:56:37.766Z,1.27
2022-11-19T00:59:05.724Z,1.55
2022-11-19T01:01:33.669Z,0.60
2022-11-19T01:04:01.696Z,0.57
2022-11-19T01:06:29.698Z,0.90
2022-11-19T01:08:58.339Z,0.60
2022-11-19T01:11:29.254Z,0.88
2022-11-19T01:13:57.656Z,0.77
2022-11-19T01:16:29.153Z,0.63
2022-11-19T01:18:57.849Z,0.70
2022-11-19T01:21:29.595Z,0.50
2022-11-19T01:23:58.237Z,0.70
2022-11-19T01:26:26.970Z,0.65
2022-11-19T01:28:54.971Z,1.45
2022-11-19T01:31:25.840Z,0.80
2022-11-19T01:33:53.982Z,0.75
2022-11-19T01:36:24.497Z,0.70
2022-11-19T01:38:52.282Z,1.17
2022-11-19T01:41:29.184Z,0.98
2022-11-19T01:43:59.465Z,0.50
2022-11-19T01:46:30.184Z,0.65
2022-11-19T01:49:12.928Z,0.90
2022-11-19T01:51:55.716Z,0.80
2022-11-19T01:54:43.413Z,0.63
2022-11-19T01:57:16.074Z,0.70
2022-11-19T01:59:45.653Z,0.80
2022-11-19T02:02:13.690Z,1.08
2022-11-19T02:04:41.382Z,1.00
2022-11-19T02:07:11.190Z,0.73
2022-11-19T02:09:40.163Z,0.82
2022-11-19T02:12:26.144Z,0.60
2022-11-19T02:15:23.261Z,0.98
2022-11-19T02:18:29.481Z,0.90
2022-11-19T02:21:09.124Z,0.70
2022-11-19T02:23:55.501Z,0.75
2022-11-19T02:26:38.319Z,1.02
2022-11-19T02:29:29.871Z,0.90
2022-11-19T02:32:08.299Z,0.95
2022-11-19T02:34:46.170Z,0.77
2022-11-19T02:37:42.952Z,1.27
2022-11-19T02:40:26.905Z,0.80
2022-11-19T02:43:19.191Z,0.80
2022-11-19T02:45:59.439Z,1.20
2022-11-19T02:48:56.816Z,0.73
2022-11-19T02:51:24.695Z,1.05
2022-11-19T02:53:53.261Z,0.95
2022-11-19T02:56:53.297Z,1.15
2022-11-19T02:59:50.458Z,0.75
2022-11-19T03:02:38.183Z,1.10
2022-11-19T03:05:09.845Z,0.80
2022-11-19T03:07:38.517Z,1.23
2022-11-19T03:10:10.691Z,0.80
2022-11-19T03:12:56.870Z,0.73
2022-11-19T03:15:58.396Z,0.88
2022-11-19T03:18:44.610Z,0.70
2022-11-19T03:21:37.919Z,0.60
2022-11-19T03:24:14.735Z,0.63
2022-11-19T03:26:50.823Z,0.70
2022-11-19T03:29:20.424Z,0.80
2022-11-19T03:31:53.313Z,0.90
2022-11-19T03:34:23.972Z,1.17
2022-11-19T03:36:56.548Z,0.80
2022-11-19T03:39:25.286Z,0.88
2022-11-19T03:41:55.533Z,0.88
2022-11-19T03:44:38.501Z,0.93
2022-11-19T03:47:19.722Z,1.25
2022-11-19T03:49:52.855Z,0.73
2022-11-19T03:52:22.615Z,0.90
2022-11-19T03:54:50.631Z,0.75
2022-11-19T03:57:21.982Z,0.80
2022-11-19T03:59:49.819Z,0.73
2022-11-19T04:02:18.306Z,0.90
2022-11-19T04:04:46.250Z,0.60
2022-11-19T04:07:19.808Z,0.85
2022-11-19T04:09:48.314Z,1.27
2022-11-19T04:12:23.793Z,0.60
2022-11-19T04:14:52.545Z,0.70
2022-11-19T04:17:20.621Z,0.70
2022-11-19T04:19:48.632Z,0.85
2022-11-19T04:22:16.294Z,0.70
2022-11-19T04:24:43.950Z,0.77
2022-11-19T04:27:11.783Z,0.82
2022-11-19T04:29:39.550Z,1.55
2022-11-19T04:32:07.310Z,0.95
2022-11-19T04:34:35.077Z,0.70
2022-11-19T04:37:02.656Z,0.65
2022-11-19T04:39:30.275Z,0.63
2022-11-19T04:41:57.874Z,0.75
2022-11-19T04:44:25.944Z,1.17
2022-11-19T04:46:54.060Z,0.70
2022-11-19T04:49:22.265Z,1.20
2022-11-19T04:51:50.278Z,1.15
2022-11-19T04:54:17.992Z,1.05
2022-11-19T04:56:45.602Z,1.00
2022-11-19T04:59:13.361Z,1.02
2022-11-19T05:01:41.288Z,0.70
2022-11-19T05:04:10.155Z,1.23
2022-11-19T05:06:38.371Z,0.90
2022-11-19T05:09:06.141Z,0.70
2022-11-19T05:11:33.820Z,0.60
2022-11-19T05:14:01.588Z,0.68
2022-11-19T05:16:29.423Z,1.15
2022-11-19T05:18:57.256Z,0.60
2022-11-19T05:21:25.073Z,2.08
2022-11-19T05:23:52.932Z,0.80
2022-11-19T05:26:20.818Z,0.90
2022-11-19T05:28:48.851Z,0.70
2022-11-19T05:31:16.647Z,0.70
2022-11-19T05:33:44.517Z,0.90
2022-11-19T05:36:12.286Z,0.77
2022-11-19T05:38:41.480Z,0.80
2022-11-19T05:41:09.500Z,1.38
2022-11-19T05:43:37.354Z,0.80
2022-11-19T05:46:05.362Z,0.90
2022-11-19T05:48:33.401Z,1.00
2022-11-19T05:51:01.277Z,0.80
2022-11-19T05:53:29.095Z,0.70
2022-11-19T05:55:57.233Z,0.57
2022-11-19T05:58:25.014Z,0.57
2022-11-19T06:00:56.945Z,0.85
2022-11-19T06:03:24.724Z,0.88
2022-11-19T06:05:52.817Z,1.15
2022-11-19T06:08:20.597Z,0.85
2022-11-19T06:10:48.531Z,0.60
2022-11-19T06:13:17.184Z,0.80
2022-11-19T06:15:45.075Z,0.70
2022-11-19T06:18:12.931Z,0.85
2022-11-19T06:20:40.758Z,0.75
2022-11-19T06:23:08.565Z,0.80
2022-11-19T06:25:36.452Z,1.08
2022-11-19T06:28:04.176Z,0.95
2022-11-19T06:30:32.176Z,1.63
2022-11-19T06:32:59.967Z,1.13
2022-11-19T06:35:27.591Z,0.70
2022-11-19T06:37:55.456Z,0.82
2022-11-19T06:40:23.322Z,0.90
2022-11-19T06:42:51.268Z,0.90
2022-11-19T06:45:19.156Z,1.15
2022-11-19T06:47:49.479Z,0.98
2022-11-19T06:50:17.440Z,0.80
2022-11-19T06:52:45.194Z,0.60
2022-11-19T06:55:13.745Z,1.10
2022-11-19T06:57:41.560Z,0.90
2022-11-19T07:00:09.922Z,0.70
2022-11-19T07:02:38.116Z,0.80
2022-11-19T07:05:06.400Z,0.65
2022-11-19T07:07:35.228Z,0.85
2022-11-19T07:10:02.959Z,0.50
2022-11-19T07:12:30.738Z,0.70
2022-11-19T07:15:03.752Z,0.90
2022-11-19T07:17:32.087Z,0.50
2022-11-19T07:19:59.791Z,0.70
2022-11-19T07:22:27.725Z,1.27
2022-11-19T07:24:55.509Z,0.65
2022-11-19T07:27:23.575Z,0.82
2022-11-19T07:29:51.359Z,0.90
2022-11-19T07:32:18.991Z,0.93
2022-11-19T07:34:46.522Z,0.70
2022-11-19T07:37:14.054Z,0.82
2022-11-19T07:39:41.666Z,0.88
2022-11-19T07:42:27.653Z,0.88
2022-11-19T07:44:55.321Z,0.88
2022-11-19T07:47:22.842Z,1.02
2022-11-19T07:49:50.498Z,1.40
2022-11-19T07:52:18.338Z,0.63
2022-11-19T07:54:45.933Z,0.93
2022-11-19T07:57:13.885Z,0.88
2022-11-19T07:59:41.613Z,0.60
2022-11-19T08:02:13.538Z,0.63
2022-11-19T08:04:41.731Z,0.60
2022-11-19T08:07:09.608Z,1.25
2022-11-19T08:09:37.469Z,0.75
2022-11-19T08:12:05.266Z,0.85
2022-11-19T08:14:32.780Z,0.70
2022-11-19T08:17:19.071Z,0.60
2022-11-19T08:19:46.897Z,1.17
2022-11-19T08:22:14.705Z,0.70
2022-11-19T08:24:42.406Z,0.70
2022-11-19T08:27:10.302Z,0.90
2022-11-19T08:29:38.181Z,1.05
2022-11-19T08:32:05.892Z,0.50
2022-11-19T08:34:34.760Z,0.50
2022-11-19T08:37:02.659Z,0.63
2022-11-19T08:39:30.910Z,0.60
2022-11-19T08:42:16.859Z,0.65
2022-11-19T08:44:44.674Z,0.60
2022-11-19T08:47:12.653Z,0.60
2022-11-19T08:49:40.387Z,0.68
2022-11-19T08:52:08.319Z,0.75
2022-11-19T08:54:36.127Z,0.70
2022-11-19T08:57:04.278Z,0.63
2022-11-19T08:59:32.079Z,0.65
2022-11-19T09:01:59.741Z,1.00
2022-11-19T09:04:27.279Z,0.70
2022-11-19T09:06:54.908Z,0.63
2022-11-19T09:09:22.567Z,1.08
2022-11-19T09:11:50.155Z,0.73
2022-11-19T09:14:18.149Z,1.55
2022-11-19T09:16:45.937Z,0.80
2022-11-19T09:19:13.866Z,1.13
2022-11-19T09:21:41.361Z,1.10
2022-11-19T09:24:09.093Z,1.02
2022-11-19T09:26:36.620Z,1.23
2022-11-19T09:29:04.222Z,1.13
2022-11-19T09:31:31.886Z,0.93
2022-11-19T09:33:59.927Z,0.95
2022-11-19T09:36:27.899Z,0.90
2022-11-19T09:38:58.629Z,0.80
2022-11-19T09:41:50.551Z,1.00
2022-11-19T09:44:33.399Z,0.60
2022-11-19T09:47:06.902Z,1.55
2022-11-19T09:49:45.965Z,0.82
2022-11-19T09:52:23.317Z,1.23
2022-11-19T09:54:54.648Z,1.30
2022-11-19T09:57:35.283Z,0.90
2022-11-19T10:00:06.710Z,1.50
2022-11-19T10:02:39.155Z,0.77
2022-11-19T10:05:07.420Z,1.20
2022-11-19T10:07:48.175Z,1.10
2022-11-19T10:10:41.713Z,0.88
2022-11-19T10:13:25.937Z,1.15
2022-11-19T10:16:05.521Z,0.90
2022-11-19T10:18:48.735Z,0.95
2022-11-19T10:21:43.883Z,0.70
2022-11-19T10:24:39.558Z,0.82
2022-11-19T10:27:19.662Z,1.02
2022-11-19T10:29:51.425Z,0.77
2022-11-19T10:32:41.506Z,1.10
2022-11-19T10:35:17.617Z,1.00
2022-11-19T10:38:11.861Z,0.73
2022-11-19T10:40:45.914Z,0.70
2022-11-19T10:43:31.907Z,1.05
2022-11-19T10:46:03.250Z,0.90
2022-11-19T10:48:42.142Z,0.75
2022-11-19T10:51:28.658Z,1.25
2022-11-19T10:53:57.629Z,0.77
2022-11-19T10:56:42.452Z,0.68
2022-11-19T11:01:47.913Z,1.13
2022-11-19T11:04:29.923Z,1.15
2022-11-19T11:07:05.439Z,0.65
2022-11-19T11:09:40.609Z,0.82
2022-11-19T11:12:35.586Z,0.93
2022-11-19T11:15:17.369Z,2.25
2022-11-19T11:17:47.580Z,0.60
2022-11-19T11:20:18.232Z,0.68
2022-11-19T11:22:49.222Z,0.80
2022-11-19T11:25:25.583Z,1.00
2022-11-19T11:28:20.582Z,0.85
2022-11-19T11:30:57.766Z,1.08
2022-11-19T11:33:25.206Z,1.60
2022-11-19T11:35:55.525Z,0.75
2022-11-19T11:38:26.725Z,1.20
2022-11-19T11:41:53.323Z,0.90
2022-11-19T11:44:16.560Z,0.80
2022-11-19T11:46:53.673Z,0.77
2022-11-19T11:49:32.106Z,0.68
2022-11-19T11:52:11.656Z,0.60
2022-11-19T11:54:56.715Z,0.50
2022-11-19T11:59:53.848Z,0.55
2022-11-19T12:02:27.316Z,0.88
2022-11-19T12:04:55.825Z,0.70
2022-11-19T12:07:36.443Z,1.63
2022-11-19T12:10:15.860Z,0.60
2022-11-19T12:12:51.142Z,0.70
2022-11-19T12:15:40.407Z,0.60
2022-11-19T12:18:43.599Z,0.60
2022-11-19T12:21:47.258Z,0.70
2022-11-19T12:24:32.704Z,0.80
2022-11-19T12:27:05.977Z,0.80
2022-11-19T12:29:47.407Z,0.75
2022-11-19T12:32:28.936Z,1.27
2022-11-19T12:35:18.934Z,0.75
2022-11-19T12:38:13.661Z,0.70
2022-11-19T12:41:27.098Z,0.70
2022-11-19T12:43:54.515Z,0.60
2022-11-19T12:46:40.711Z,0.60
2022-11-19T12:49:48.632Z,0.60
2022-11-19T12:52:38.539Z,0.93
2022-11-19T12:55:15.217Z,0.50
2022-11-19T12:58:04.946Z,0.80
2022-11-19T13:00:40.789Z,0.75
2022-11-19T13:03:25.165Z,0.70
2022-11-19T13:06:00.713Z,1.53
2022-11-19T13:08:43.906Z,0.65
2022-11-19T13:11:36.697Z,0.70
2022-11-19T13:14:27.384Z,1.23
2022-11-19T13:16:57.111Z,1.35
2022-11-19T13:19:34.308Z,0.60
2022-11-19T13:22:12.536Z,0.50
2022-11-19T13:24:44.301Z,0.85
2022-11-19T13:27:20.154Z,0.55
2022-11-19T13:30:03.385Z,0.70
2022-11-19T13:32:33.967Z,1.00
2022-11-19T13:35:21.613Z,0.50
2022-11-19T13:37:57.992Z,0.45
2022-11-19T13:40:54.403Z,0.55
2022-11-19T13:43:41.373Z,0.77
2022-11-19T13:46:20.779Z,0.60
2022-11-19T13:49:17.744Z,0.40
2022-11-19T13:51:53.270Z,1.00
2022-11-19T13:54:36.887Z,1.17
2022-11-19T13:57:06.910Z,0.75
2022-11-19T13:59:43.761Z,0.93
2022-11-19T14:02:11.259Z,0.70
2022-11-19T14:05:05.218Z,0.60
2022-11-19T14:07:53.364Z,0.50
2022-11-19T14:10:28.835Z,0.50
2022-11-19T14:13:14.134Z,0.70
2022-11-19T14:16:33.514Z,0.63
2022-11-19T14:19:22.289Z,0.50
2022-11-19T14:22:12.994Z,0.55
2022-11-19T14:24:58.732Z,1.00
2022-11-19T14:30:19.637Z,0.65
2022-11-19T14:32:52.438Z,0.40
2022-11-19T14:35:26.084Z,0.57
2022-11-19T14:37:57.189Z,0.60
2022-11-19T14:40:28.657Z,0.52
2022-11-19T14:43:20.563Z,0.63
2022-11-19T14:46:17.276Z,0.70
2022-11-19T14:48:54.928Z,0.60
2022-11-19T14:51:33.086Z,0.63
2022-11-19T14:54:08.450Z,0.50
2022-11-19T14:56:38.265Z,0.57
2022-11-19T14:59:10.403Z,0.60
2022-11-19T15:02:01.094Z,0.90
2022-11-19T15:04:40.068Z,0.70
2022-11-19T15:07:25.412Z,0.60
2022-11-19T15:10:14.450Z,0.70
2022-11-19T15:12:44.882Z,0.70
2022-11-19T15:15:22.399Z,1.52
2022-11-19T15:18:00.620Z,0.98
2022-11-19T15:21:06.744Z,0.65
2022-11-19T15:24:25.064Z,0.75
2022-11-19T15:27:01.529Z,0.70
2022-11-19T15:30:01.526Z,1.95
2022-11-19T15:32:52.664Z,0.90
2022-11-19T15:35:26.381Z,0.93
2022-11-19T15:37:58.046Z,0.93
2022-11-19T15:40:29.827Z,1.13
2022-11-19T15:43:14.091Z,0.80
2022-11-19T15:45:52.186Z,0.70
2022-11-19T15:48:38.696Z,0.73
2022-11-19T15:51:07.963Z,1.00
2022-11-19T15:53:35.437Z,0.90
2022-11-19T15:56:08.827Z,1.20
2022-11-19T15:58:40.609Z,2.40
2022-11-19T16:01:11.579Z,1.42
2022-11-19T16:03:39.823Z,1.63
2022-11-19T16:06:18.332Z,1.65
2022-11-19T16:08:51.335Z,1.85
2022-11-19T16:11:38.711Z,1.05
2022-11-19T16:14:43.012Z,1.55
2022-11-19T16:17:43.502Z,1.73
2022-11-19T16:20:11.760Z,3.20
2022-11-19T16:22:47.915Z,3.63
2022-11-19T16:25:25.036Z,4.32
2022-11-19T16:27:57.984Z,3.22
2022-11-19T16:30:28.463Z,3.47
2022-11-19T16:33:00.416Z,1.88
2022-11-19T16:35:31.161Z,2.25
2022-11-19T16:38:01.130Z,1.85
2022-11-19T16:40:49.536Z,2.15
2022-11-19T16:43:18.297Z,1.67
2022-11-19T16:45:47.149Z,1.50
2022-11-19T16:49:05.917Z,1.23
2022-11-19T16:51:39.562Z,1.58
2022-11-19T16:54:10.917Z,1.85
2022-11-19T16:56:58.366Z,1.30
2022-11-19T16:59:38.797Z,2.42
2022-11-19T17:02:15.938Z,2.05
2022-11-19T17:04:49.810Z,1.88
2022-11-19T17:07:29.777Z,1.70
2022-11-19T17:10:26.487Z,2.42
2022-11-19T17:13:00.047Z,1.25
2022-11-19T17:15:38.956Z,3.90
2022-11-19T17:18:21.346Z,6.35
2022-11-19T17:20:51.463Z,4.68
2022-11-19T17:23:25.451Z,2.90
2022-11-19T17:25:55.463Z,2.47
2022-11-19T17:28:46.679Z,2.35
2022-11-19T17:31:26.528Z,3.35
2022-11-19T17:34:09.705Z,2.92
2022-11-19T17:36:38.402Z,2.40
2022-11-19T17:39:13.653Z,2.42
2022-11-19T17:42:01.514Z,2.03
2022-11-19T17:44:39.433Z,2.95
2022-11-19T17:47:21.784Z,2.33
2022-11-19T17:49:52.064Z,2.88
2022-11-19T17:52:28.696Z,2.55
2022-11-19T17:55:21.150Z,2.63
2022-11-19T17:57:48.997Z,3.53
2022-11-19T18:00:17.237Z,3.95
2022-11-19T18:02:48.281Z,2.88
2022-11-19T18:05:25.049Z,2.78
2022-11-19T18:07:53.462Z,2.47
2022-11-19T18:10:22.474Z,3.00
2022-11-19T18:12:50.093Z,4.15
2022-11-19T18:15:20.194Z,3.58
2022-11-19T18:17:48.001Z,3.78
2022-11-19T18:20:15.757Z,3.60
2022-11-19T18:22:43.711Z,4.00
2022-11-19T18:25:17.652Z,4.13
2022-11-19T18:27:46.005Z,4.45
2022-11-19T18:30:15.278Z,4.20
2022-11-19T18:32:43.029Z,4.85
2022-11-19T18:35:18.736Z,3.72
2022-11-19T18:37:46.659Z,4.53
2022-11-19T18:40:16.108Z,5.47
2022-11-19T18:43:03.158Z,4.63
2022-11-19T18:45:31.481Z,4.40
2022-11-19T18:47:59.149Z,4.32
2022-11-19T18:50:29.900Z,4.00
2022-11-19T18:52:58.254Z,4.53
2022-11-19T18:55:26.278Z,3.85
2022-11-19T18:57:54.249Z,5.05
2022-11-19T19:00:22.384Z,3.55
2022-11-19T19:02:50.039Z,4.10
2022-11-19T19:05:17.924Z,5.20
2022-11-19T19:07:45.493Z,4.57
2022-11-19T19:10:14.070Z,5.35
2022-11-19T19:12:42.832Z,4.43
2022-11-19T19:15:10.986Z,4.97
2022-11-19T19:17:38.882Z,5.53
2022-11-19T19:20:06.961Z,4.68
2022-11-19T19:22:34.583Z,5.50
2022-11-19T19:25:02.664Z,6.70
2022-11-19T19:27:30.317Z,5.93
2022-11-19T19:29:58.276Z,5.97
2022-11-19T19:32:26.011Z,6.22
2022-11-19T19:34:53.735Z,7.25
2022-11-19T19:37:21.906Z,5.65
2022-11-19T19:39:49.892Z,5.78
2022-11-19T19:42:17.875Z,5.03
2022-11-19T19:44:45.733Z,4.78
2022-11-19T19:47:13.457Z,6.03
2022-11-19T19:49:42.713Z,6.65
2022-11-19T19:52:10.555Z,5.75
2022-11-19T19:54:41.517Z,6.47
2022-11-19T19:57:09.476Z,6.72
2022-11-19T19:59:37.235Z,7.03
2022-11-19T20:02:04.993Z,6.07
2022-11-19T20:04:32.748Z,5.60
2022-11-19T20:07:01.628Z,5.95
2022-11-19T20:09:30.692Z,5.60
2022-11-19T20:11:59.832Z,5.57
2022-11-19T20:14:27.561Z,7.15
2022-11-19T20:16:55.254Z,5.00
2022-11-19T20:19:23.213Z,4.72
2022-11-19T20:21:52.451Z,5.97
2022-11-19T20:24:22.070Z,5.68
2022-11-19T20:26:49.606Z,4.70
2022-11-19T20:29:18.123Z,4.13
2022-11-19T20:31:47.902Z,5.65
2022-11-19T20:34:16.445Z,6.05
2022-11-19T20:39:50.710Z,6.00
2022-11-19T20:42:36.666Z,4.82
2022-11-19T20:45:08.585Z,4.78
2022-11-19T20:47:36.210Z,5.07
2022-11-19T20:50:03.797Z,4.82
2022-11-19T20:52:31.604Z,4.25
2022-11-19T20:55:03.617Z,4.53
2022-11-19T20:57:34.228Z,4.13
2022-11-19T21:00:02.469Z,4.38
2022-11-19T21:02:31.637Z,4.30
2022-11-19T21:04:59.746Z,5.05
2022-11-19T21:07:27.714Z,4.85
2022-11-19T21:09:55.393Z,4.07
2022-11-19T21:12:24.248Z,4.45
2022-11-19T21:14:52.186Z,5.22
2022-11-19T21:17:22.579Z,5.57
2022-11-19T21:19:50.560Z,5.40
2022-11-19T21:22:18.440Z,5.35
2022-11-19T21:24:46.062Z,5.53
2022-11-19T21:27:13.839Z,5.13
2022-11-19T21:29:41.948Z,6.47
2022-11-19T21:32:09.952Z,5.68
2022-11-19T21:34:39.359Z,5.43
2022-11-19T21:37:07.171Z,5.07
2022-11-19T21:39:34.912Z,4.85
2022-11-19T21:42:02.581Z,4.63
2022-11-19T21:44:30.223Z,4.60
2022-11-19T21:46:57.729Z,4.47
2022-11-19T21:49:25.398Z,4.30
2022-11-19T21:51:53.368Z,4.15
2022-11-19T21:54:21.213Z,4.30
2022-11-19T21:56:49.041Z,5.75
2022-11-19T21:59:16.660Z,5.60
2022-11-19T22:01:44.301Z,5.18
2022-11-19T22:04:15.726Z,4.68
2022-11-19T22:06:43.906Z,3.70
2022-11-19T22:09:12.068Z,4.55
2022-11-19T22:11:43.304Z,4.15
2022-11-19T22:14:14.464Z,3.55
2022-11-19T22:16:43.233Z,4.03
2022-11-19T22:19:12.314Z,4.35
2022-11-19T22:21:57.648Z,4.65
2022-11-19T22:24:27.745Z,4.20
2022-11-19T22:26:55.650Z,4.80
2022-11-19T22:29:23.771Z,4.93
2022-11-19T22:31:51.636Z,5.03
2022-11-19T22:34:19.447Z,4.50
2022-11-19T22:36:57.958Z,4.38
2022-11-19T22:39:29.718Z,4.72
2022-11-19T22:41:57.665Z,5.65
2022-11-19T22:44:25.804Z,6.18
2022-11-19T22:46:56.541Z,6.05
2022-11-19T22:49:25.365Z,5.88
2022-11-19T22:51:54.099Z,6.13
2022-11-19T22:54:21.929Z,6.30
2022-11-19T22:56:49.657Z,5.53
2022-11-19T22:59:17.618Z,5.97
2022-11-19T23:01:45.721Z,6.18
2022-11-19T23:04:15.081Z,5.78
2022-11-19T23:06:42.806Z,5.80
2022-11-19T23:09:10.653Z,5.15
2022-11-19T23:11:57.005Z,5.07
2022-11-19T23:14:25.625Z,5.35
2022-11-19T23:16:53.475Z,5.78
2022-11-19T23:19:21.503Z,5.55
2022-11-19T23:21:49.317Z,4.78
2022-11-19T23:24:17.848Z,5.68
2022-11-19T23:26:48.432Z,5.43
2022-11-19T23:29:16.141Z,5.25
2022-11-19T23:31:43.886Z,5.03
2022-11-19T23:34:12.170Z,5.78
2022-11-19T23:36:41.293Z,4.85
2022-11-19T23:39:14.936Z,5.65
2022-11-19T23:41:42.784Z,5.00
2022-11-19T23:44:10.818Z,5.50
2022-11-19T23:46:38.932Z,4.70
2022-11-19T23:49:10.538Z,4.78
2022-11-19T23:51:45.083Z,4.85
2022-11-19T23:54:14.111Z,4.60
2022-11-19T23:56:44.548Z,4.72
2022-11-19T23:59:12.732Z,4.93
